createdAt,value
2018-08-28T00:02:05.062Z,89.75
2018-08-28T00:04:32.364Z,91.21
2018-08-28T00:06:59.648Z,90.86
2018-08-28T00:12:19.595Z,91.59
2018-08-28T00:14:46.885Z,91.92
2018-08-28T00:17:14.172Z,92.35
2018-08-28T00:19:41.445Z,92.94
2018-08-28T00:22:08.722Z,92.98
2018-08-28T00:24:36.060Z,92.18
2018-08-28T00:27:03.401Z,93.23
2018-08-28T00:29:30.695Z,93.41
2018-08-28T00:31:57.977Z,93.03
2018-08-28T00:34:25.312Z,93.29
2018-08-28T00:36:52.758Z,93.25
2018-08-28T00:39:20.002Z,92.99
2018-08-28T00:41:47.498Z,93.03
2018-08-28T00:44:14.859Z,93.25
2018-08-28T00:46:42.193Z,92.81
2018-08-28T00:49:09.447Z,93.57
2018-08-28T00:51:36.724Z,93.23
2018-08-28T00:54:04.035Z,93.20
2018-08-28T00:56:31.372Z,92.13
2018-08-28T00:58:58.689Z,92.94
2018-08-28T01:01:25.983Z,92.10
2018-08-28T01:03:53.265Z,92.36
2018-08-28T01:06:20.551Z,92.14
2018-08-28T01:08:47.919Z,91.97
2018-08-28T01:11:15.211Z,91.99
2018-08-28T01:13:42.550Z,91.85
2018-08-28T01:16:09.884Z,92.91
2018-08-28T01:18:37.199Z,92.20
2018-08-28T01:21:04.479Z,91.20
2018-08-28T01:23:31.784Z,91.32
2018-08-28T01:25:59.106Z,91.04
2018-08-28T01:28:26.450Z,91.04
2018-08-28T01:30:53.759Z,91.65
2018-08-28T01:33:21.023Z,92.82
2018-08-28T01:35:48.317Z,92.77
2018-08-28T01:38:15.570Z,91.62
2018-08-28T01:40:42.817Z,90.69
2018-08-28T01:43:16.660Z,90.95
2018-08-28T01:45:44.031Z,90.44
2018-08-28T01:48:11.275Z,90.35
2018-08-28T01:50:38.606Z,90.99
2018-08-28T01:53:05.877Z,90.87
2018-08-28T01:55:33.138Z,90.71
2018-08-28T01:58:00.417Z,91.15
2018-08-28T02:00:27.643Z,91.33
2018-08-28T02:02:54.964Z,91.22
2018-08-28T02:05:22.220Z,90.55
2018-08-28T02:07:49.577Z,90.06
2018-08-28T02:10:16.857Z,90.69
2018-08-28T02:12:44.084Z,90.00
2018-08-28T02:15:11.354Z,90.68
2018-08-28T02:17:38.987Z,90.21
2018-08-28T02:20:06.412Z,89.60
2018-08-28T02:22:33.643Z,89.93
2018-08-28T02:25:01.002Z,91.34
2018-08-28T02:27:28.341Z,91.15
2018-08-28T02:29:55.604Z,90.19
2018-08-28T02:32:22.933Z,89.72
2018-08-28T02:34:50.370Z,89.25
2018-08-28T02:37:17.643Z,90.65
2018-08-28T02:39:44.982Z,90.60
2018-08-28T02:42:12.394Z,90.90
2018-08-28T02:44:39.735Z,91.68
2018-08-28T02:47:07.103Z,91.83
2018-08-28T02:49:34.393Z,91.29
2018-08-28T02:52:01.740Z,91.88
2018-08-28T02:57:22.093Z,89.77
2018-08-28T02:59:49.503Z,90.73
2018-08-28T03:02:16.815Z,91.19
2018-08-28T03:04:44.182Z,91.92
2018-08-28T03:07:11.447Z,90.73
2018-08-28T03:09:38.804Z,91.77
2018-08-28T03:12:06.174Z,92.31
2018-08-28T03:14:33.442Z,92.31
2018-08-28T03:17:00.681Z,92.48
2018-08-28T03:19:27.965Z,92.31
2018-08-28T03:21:55.278Z,91.36
2018-08-28T03:24:22.601Z,90.65
2018-08-28T03:26:49.865Z,90.45
2018-08-28T03:29:17.271Z,90.70
2018-08-28T03:31:44.521Z,90.51
2018-08-28T03:34:11.808Z,90.17
2018-08-28T03:36:39.092Z,90.73
2018-08-28T03:39:06.480Z,90.53
2018-08-28T03:41:33.756Z,91.59
2018-08-28T03:44:01.062Z,91.08
2018-08-28T03:46:28.418Z,90.86
2018-08-28T03:48:55.718Z,89.82
2018-08-28T03:51:23.093Z,89.66
2018-08-28T03:53:50.393Z,90.71
2018-08-28T03:56:17.641Z,91.52
2018-08-28T03:58:44.959Z,91.31
2018-08-28T04:01:12.307Z,89.97
2018-08-28T04:03:39.697Z,89.98
2018-08-28T04:06:07.686Z,89.86
2018-08-28T04:08:35.042Z,90.03
2018-08-28T04:11:02.315Z,90.25
2018-08-28T04:13:29.578Z,90.28
2018-08-28T04:15:56.911Z,90.14
2018-08-28T04:18:24.127Z,89.64
2018-08-28T04:20:51.438Z,88.56
2018-08-28T04:23:19.425Z,88.98
2018-08-28T04:25:46.693Z,89.91
2018-08-28T04:28:18.600Z,89.73
2018-08-28T04:30:45.901Z,90.37
2018-08-28T04:33:13.129Z,89.39
2018-08-28T04:35:40.379Z,89.24
2018-08-28T04:38:07.654Z,89.26
2018-08-28T04:40:34.968Z,89.81
2018-08-28T04:43:02.574Z,89.43
2018-08-28T04:45:29.952Z,89.06
2018-08-28T04:47:57.288Z,90.23
2018-08-28T04:50:24.585Z,89.13
2018-08-28T04:52:51.868Z,88.87
2018-08-28T04:55:19.257Z,88.77
2018-08-28T04:57:46.562Z,88.18
2018-08-28T05:00:13.804Z,88.46
2018-08-28T05:02:41.065Z,88.61
2018-08-28T05:05:09.032Z,88.82
2018-08-28T05:07:36.316Z,89.15
2018-08-28T05:10:04.554Z,88.27
2018-08-28T05:12:31.852Z,88.40
2018-08-28T05:14:59.482Z,88.99
2018-08-28T05:17:26.769Z,88.94
2018-08-28T05:19:54.244Z,88.91
2018-08-28T05:22:21.970Z,89.08
2018-08-28T05:24:49.487Z,88.76
2018-08-28T05:27:16.789Z,88.29
2018-08-28T05:29:44.123Z,88.59
2018-08-28T05:32:11.343Z,88.69
2018-08-28T05:34:38.760Z,89.34
2018-08-28T05:37:06.201Z,88.32
2018-08-28T05:39:33.598Z,84.61
2018-08-28T05:42:00.941Z,85.12
2018-08-28T05:44:28.205Z,85.32
2018-08-28T05:46:55.598Z,85.55
2018-08-28T05:49:22.959Z,86.24
2018-08-28T05:51:50.234Z,86.40
2018-08-28T05:54:17.523Z,86.96
2018-08-28T05:56:44.775Z,87.08
2018-08-28T05:59:12.018Z,87.29
2018-08-28T06:01:39.424Z,84.97
2018-08-28T06:04:06.813Z,84.69
2018-08-28T06:06:34.158Z,82.38
2018-08-28T06:09:01.495Z,83.71
2018-08-28T06:11:28.935Z,83.98
2018-08-28T06:13:56.326Z,84.47
2018-08-28T06:16:23.712Z,86.51
2018-08-28T06:18:51.056Z,85.69
2018-08-28T06:21:18.366Z,85.32
2018-08-28T06:23:45.604Z,86.04
2018-08-28T06:26:12.922Z,86.29
2018-08-28T06:28:40.287Z,84.35
2018-08-28T06:31:07.526Z,83.60
2018-08-28T06:33:34.799Z,83.68
2018-08-28T06:36:02.182Z,82.60
2018-08-28T06:38:29.471Z,83.14
2018-08-28T06:41:03.760Z,83.34
2018-08-28T06:43:31.321Z,83.37
2018-08-28T06:45:58.716Z,82.25
2018-08-28T06:48:25.973Z,81.80
2018-08-28T06:50:53.370Z,81.83
2018-08-28T06:53:20.683Z,80.66
2018-08-28T06:55:47.937Z,80.04
2018-08-28T06:58:15.231Z,79.10
2018-08-28T07:00:42.521Z,80.21
2018-08-28T07:03:09.799Z,78.62
2018-08-28T07:05:37.164Z,78.06
2018-08-28T07:08:04.596Z,75.71
2018-08-28T07:10:31.959Z,75.21
2018-08-28T07:12:59.290Z,73.77
2018-08-28T07:15:26.603Z,72.74
2018-08-28T07:17:53.891Z,70.36
2018-08-28T07:20:21.211Z,68.03
2018-08-28T07:22:48.484Z,65.67
2018-08-28T07:25:15.729Z,64.69
2018-08-28T07:27:43.017Z,61.68
2018-08-28T07:30:10.250Z,60.00
2018-08-28T07:32:37.514Z,58.15
2018-08-28T07:35:04.838Z,56.66
2018-08-28T07:37:32.186Z,57.35
2018-08-28T07:39:59.498Z,58.39
2018-08-28T07:42:26.836Z,57.00
2018-08-28T07:44:54.114Z,56.34
2018-08-28T07:47:21.410Z,57.19
2018-08-28T07:49:48.660Z,56.83
2018-08-28T07:52:15.928Z,55.55
2018-08-28T07:54:43.266Z,54.59
2018-08-28T07:57:10.568Z,55.98
2018-08-28T07:59:37.838Z,55.78
2018-08-28T08:02:05.588Z,57.80
2018-08-28T08:04:33.332Z,56.00
2018-08-28T08:07:00.671Z,57.17
2018-08-28T08:09:27.989Z,55.70
2018-08-28T08:11:55.237Z,54.80
2018-08-28T08:14:22.552Z,56.70
2018-08-28T08:16:49.840Z,56.14
2018-08-28T08:19:17.120Z,56.54
2018-08-28T08:21:44.448Z,56.57
2018-08-28T08:24:11.781Z,55.89
2018-08-28T08:26:39.036Z,57.16
2018-08-28T08:29:06.507Z,57.06
2018-08-28T08:31:33.836Z,56.37
2018-08-28T08:34:01.075Z,56.33
2018-08-28T08:36:28.337Z,57.37
2018-08-28T08:38:55.609Z,56.35
2018-08-28T08:41:22.915Z,55.45
2018-08-28T08:43:50.131Z,55.93
2018-08-28T08:46:17.505Z,54.65
2018-08-28T08:48:44.911Z,53.91
2018-08-28T08:51:12.215Z,54.81
2018-08-28T08:53:39.521Z,55.89
2018-08-28T08:56:06.855Z,54.03
2018-08-28T08:58:34.184Z,55.31
2018-08-28T09:01:01.482Z,52.39
2018-08-28T09:03:28.763Z,51.26
2018-08-28T09:05:57.806Z,51.29
2018-08-28T09:08:25.171Z,50.81
2018-08-28T09:10:52.549Z,50.47
2018-08-28T09:13:19.811Z,50.26
2018-08-28T09:15:47.083Z,51.33
2018-08-28T09:18:14.360Z,49.03
2018-08-28T09:20:41.672Z,48.25
2018-08-28T09:23:08.992Z,49.84
2018-08-28T09:25:36.299Z,50.19
2018-08-28T09:28:03.635Z,50.09
2018-08-28T09:30:30.890Z,49.81
2018-08-28T09:32:58.208Z,50.37
2018-08-28T09:35:25.448Z,48.91
2018-08-28T09:37:52.733Z,49.26
2018-08-28T09:40:20.144Z,48.91
2018-08-28T09:42:47.448Z,47.04
2018-08-28T09:45:14.815Z,45.93
2018-08-28T09:47:42.197Z,46.46
2018-08-28T09:50:09.590Z,47.17
2018-08-28T09:52:36.844Z,45.83
2018-08-28T09:55:04.211Z,45.90
2018-08-28T09:57:31.517Z,46.34
2018-08-28T09:59:58.939Z,46.14
2018-08-28T10:02:26.351Z,46.22
2018-08-28T10:04:53.721Z,45.94
2018-08-28T10:07:20.936Z,47.42
2018-08-28T10:09:48.233Z,49.08
2018-08-28T10:12:15.569Z,48.10
2018-08-28T10:14:42.866Z,47.62
2018-08-28T10:17:10.185Z,46.82
2018-08-28T10:19:37.466Z,46.51
2018-08-28T10:22:04.780Z,45.25
2018-08-28T10:24:32.032Z,44.43
2018-08-28T10:26:59.391Z,44.05
2018-08-28T10:29:26.657Z,44.09
2018-08-28T10:31:54.014Z,42.83
2018-08-28T10:34:21.337Z,41.51
2018-08-28T10:36:48.843Z,41.17
2018-08-28T10:39:16.155Z,40.86
2018-08-28T10:41:43.435Z,40.08
2018-08-28T10:44:10.785Z,41.69
2018-08-28T10:46:38.115Z,41.76
2018-08-28T10:49:05.419Z,42.20
2018-08-28T10:51:32.724Z,41.99
2018-08-28T10:53:59.977Z,40.19
2018-08-28T10:56:27.237Z,42.04
2018-08-28T10:58:56.251Z,42.08
2018-08-28T11:01:23.622Z,42.24
2018-08-28T11:03:50.833Z,43.46
2018-08-28T11:06:18.121Z,44.35
2018-08-28T11:08:45.469Z,43.84
2018-08-28T11:11:12.707Z,44.08
2018-08-28T11:13:40.000Z,43.07
2018-08-28T11:16:07.421Z,43.67
2018-08-28T11:18:34.771Z,44.32
2018-08-28T11:21:02.080Z,43.37
2018-08-28T11:23:29.416Z,43.68
2018-08-28T11:25:56.761Z,43.49
2018-08-28T11:28:23.999Z,44.35
2018-08-28T11:30:51.269Z,44.84
2018-08-28T11:33:18.556Z,44.58
2018-08-28T11:35:46.018Z,45.40
2018-08-28T11:38:13.316Z,44.31
2018-08-28T11:40:40.546Z,43.58
2018-08-28T11:43:07.965Z,45.90
2018-08-28T11:45:35.263Z,45.55
2018-08-28T11:48:02.954Z,45.63
2018-08-28T11:50:31.000Z,47.27
2018-08-28T11:52:58.309Z,43.67
2018-08-28T11:55:25.614Z,43.73
2018-08-28T11:57:52.924Z,42.70
2018-08-28T12:00:20.256Z,42.35
2018-08-28T12:03:06.900Z,42.25
2018-08-28T12:05:34.150Z,40.88
2018-08-28T12:08:01.536Z,40.61
2018-08-28T12:10:28.882Z,40.67
2018-08-28T12:12:56.244Z,40.70
2018-08-28T12:15:23.517Z,41.09
2018-08-28T12:17:50.856Z,42.11
2018-08-28T12:20:18.283Z,42.18
2018-08-28T12:22:45.668Z,40.69
2018-08-28T12:25:13.186Z,40.97
2018-08-28T12:27:40.537Z,41.84
2018-08-28T12:30:09.095Z,40.98
2018-08-28T12:32:36.413Z,40.75
2018-08-28T12:35:03.909Z,40.54
2018-08-28T12:37:31.221Z,39.41
2018-08-28T12:39:58.565Z,40.20
2018-08-28T12:42:25.875Z,40.39
2018-08-28T12:44:53.131Z,38.58
2018-08-28T12:47:20.550Z,36.32
2018-08-28T12:49:47.891Z,36.23
2018-08-28T12:52:15.131Z,36.82
2018-08-28T12:54:42.407Z,38.38
2018-08-28T12:57:09.707Z,38.68
2018-08-28T13:02:30.593Z,38.41
2018-08-28T13:04:57.835Z,37.06
2018-08-28T13:07:25.183Z,36.07
2018-08-28T13:09:52.454Z,35.89
2018-08-28T13:12:19.685Z,35.46
2018-08-28T13:14:47.143Z,36.91
2018-08-28T13:17:14.431Z,36.14
2018-08-28T13:19:41.767Z,37.04
2018-08-28T13:22:09.067Z,38.14
2018-08-28T13:24:36.402Z,39.20
2018-08-28T13:27:07.161Z,39.11
2018-08-28T13:29:34.474Z,37.96
2018-08-28T13:32:01.937Z,38.45
2018-08-28T13:34:29.174Z,38.24
2018-08-28T13:36:56.454Z,38.01
2018-08-28T13:39:23.810Z,35.90
2018-08-28T13:41:51.166Z,35.54
2018-08-28T13:47:11.291Z,35.69
2018-08-28T13:49:38.634Z,36.82
2018-08-28T13:52:06.285Z,37.62
2018-08-28T13:54:33.690Z,37.68
2018-08-28T13:57:01.022Z,37.74
2018-08-28T13:59:28.439Z,37.95
2018-08-28T14:01:55.786Z,38.32
2018-08-28T14:04:23.094Z,38.64
2018-08-28T14:06:50.405Z,38.83
2018-08-28T14:09:17.666Z,38.25
2018-08-28T14:11:44.945Z,38.01
2018-08-28T14:14:12.213Z,37.20
2018-08-28T14:16:39.600Z,36.91
2018-08-28T14:19:06.852Z,38.38
2018-08-28T14:21:34.193Z,36.82
2018-08-28T14:24:01.566Z,37.89
2018-08-28T14:26:29.623Z,37.57
2018-08-28T14:28:56.990Z,37.55
2018-08-28T14:31:24.280Z,37.78
2018-08-28T14:33:51.476Z,38.02
2018-08-28T14:36:18.837Z,36.44
2018-08-28T14:38:46.214Z,33.96
2018-08-28T14:41:13.479Z,34.99
2018-08-28T14:43:40.901Z,34.43
2018-08-28T14:46:08.742Z,34.42
2018-08-28T14:48:36.303Z,33.99
2018-08-28T14:51:03.685Z,33.62
2018-08-28T14:53:30.981Z,32.01
2018-08-28T14:55:58.200Z,32.51
2018-08-28T14:58:25.649Z,31.56
2018-08-28T15:00:56.304Z,30.77
2018-08-28T15:03:24.069Z,30.74
2018-08-28T15:05:51.346Z,30.62
2018-08-28T15:08:18.710Z,30.63
2018-08-28T15:10:46.037Z,29.90
2018-08-28T15:13:13.324Z,29.68
2018-08-28T15:15:40.793Z,29.71
2018-08-28T15:18:08.051Z,30.49
2018-08-28T15:20:35.423Z,29.23
2018-08-28T15:23:02.748Z,29.51
2018-08-28T15:25:30.308Z,29.59
2018-08-28T15:27:57.618Z,28.90
2018-08-28T15:30:24.902Z,29.36
2018-08-28T15:32:52.271Z,29.55
2018-08-28T15:35:19.624Z,30.43
2018-08-28T15:37:46.822Z,30.72
2018-08-28T15:40:14.181Z,30.30
2018-08-28T15:42:41.609Z,30.87
2018-08-28T15:45:08.884Z,31.02
2018-08-28T15:47:36.166Z,30.25
2018-08-28T15:50:03.568Z,30.59
2018-08-28T15:52:30.825Z,31.31
2018-08-28T15:54:58.092Z,31.63
2018-08-28T15:57:25.356Z,32.87
2018-08-28T15:59:52.632Z,33.53
2018-08-28T16:02:19.928Z,33.09
2018-08-28T16:04:47.384Z,32.93
2018-08-28T16:07:14.723Z,34.38
2018-08-28T16:09:41.967Z,34.70
2018-08-28T16:12:09.388Z,33.90
2018-08-28T16:14:37.632Z,33.46
2018-08-28T16:17:05.018Z,33.61
2018-08-28T16:19:32.357Z,34.01
2018-08-28T16:22:01.008Z,35.94
2018-08-28T16:24:28.331Z,36.46
2018-08-28T16:26:55.670Z,34.99
2018-08-28T16:29:23.037Z,36.79
2018-08-28T16:31:50.518Z,35.21
2018-08-28T16:34:17.830Z,35.22
2018-08-28T16:36:45.176Z,36.20
2018-08-28T16:39:12.504Z,35.95
2018-08-28T16:41:39.795Z,35.97
2018-08-28T16:44:07.268Z,36.50
2018-08-28T16:46:35.039Z,35.95
2018-08-28T16:49:02.275Z,37.07
2018-08-28T16:51:29.570Z,36.16
2018-08-28T16:53:56.845Z,37.29
2018-08-28T16:56:24.101Z,37.51
2018-08-28T16:58:51.499Z,38.75
2018-08-28T17:01:18.911Z,38.80
2018-08-28T17:03:46.206Z,39.31
2018-08-28T17:06:13.685Z,39.23
2018-08-28T17:11:33.627Z,40.51
2018-08-28T17:14:00.923Z,41.43
2018-08-28T17:16:28.255Z,41.42
2018-08-28T17:18:55.478Z,42.04
2018-08-28T17:21:22.797Z,42.35
2018-08-28T17:23:50.094Z,43.27
2018-08-28T17:26:17.383Z,43.79
2018-08-28T17:28:44.626Z,43.74
2018-08-28T17:31:11.924Z,44.20
2018-08-28T17:33:39.202Z,44.58
2018-08-28T17:36:06.908Z,44.36
2018-08-28T17:38:34.239Z,44.53
2018-08-28T17:41:01.529Z,45.52
2018-08-28T17:43:28.848Z,46.08
2018-08-28T17:45:56.230Z,46.23
2018-08-28T17:48:24.048Z,46.85
2018-08-28T17:50:51.621Z,46.85
2018-08-28T17:53:18.953Z,46.24
2018-08-28T17:55:46.271Z,46.90
2018-08-28T17:58:13.607Z,47.61
2018-08-28T18:00:41.054Z,47.93
2018-08-28T18:03:10.475Z,48.04
2018-08-28T18:05:38.172Z,48.22
2018-08-28T18:08:05.543Z,48.53
2018-08-28T18:10:32.925Z,49.43
2018-08-28T18:13:00.312Z,49.84
2018-08-28T18:15:27.621Z,49.94
2018-08-28T18:17:55.009Z,50.79
2018-08-28T18:20:25.982Z,50.65
2018-08-28T18:22:53.265Z,50.27
2018-08-28T18:25:20.502Z,50.88
2018-08-28T18:27:55.824Z,50.32
2018-08-28T18:30:23.102Z,50.77
2018-08-28T18:32:50.437Z,51.77
2018-08-28T18:35:17.746Z,52.63
2018-08-28T18:37:45.280Z,51.96
2018-08-28T18:40:12.551Z,52.67
2018-08-28T18:42:39.903Z,52.97
2018-08-28T18:45:07.308Z,53.29
2018-08-28T18:47:34.568Z,53.52
2018-08-28T18:50:01.909Z,54.60
2018-08-28T18:52:29.160Z,54.28
2018-08-28T18:54:56.469Z,54.44
2018-08-28T18:57:23.804Z,54.44
2018-08-28T18:59:51.111Z,54.54
2018-08-28T19:02:18.407Z,54.52
2018-08-28T19:04:45.777Z,54.24
2018-08-28T19:07:13.783Z,54.75
2018-08-28T19:09:41.118Z,54.75
2018-08-28T19:12:08.471Z,54.69
2018-08-28T19:14:35.832Z,55.13
2018-08-28T19:17:03.374Z,55.50
2018-08-28T19:19:30.654Z,55.60
2018-08-28T19:21:57.992Z,55.72
2018-08-28T19:24:25.326Z,56.15
2018-08-28T19:26:52.701Z,56.58
2018-08-28T19:29:20.071Z,56.52
2018-08-28T19:31:48.244Z,56.90
2018-08-28T19:34:15.473Z,57.22
2018-08-28T19:36:42.751Z,57.59
2018-08-28T19:39:10.001Z,57.29
2018-08-28T19:41:37.293Z,57.49
2018-08-28T19:44:04.665Z,57.69
2018-08-28T19:46:31.890Z,57.69
2018-08-28T19:48:59.221Z,57.98
2018-08-28T19:51:26.535Z,58.04
2018-08-28T19:53:53.824Z,57.79
2018-08-28T19:56:21.102Z,58.23
2018-08-28T19:58:48.322Z,58.38
2018-08-28T20:01:15.572Z,58.41
2018-08-28T20:03:42.888Z,58.51
2018-08-28T20:06:10.259Z,58.80
2018-08-28T20:08:37.539Z,58.85
2018-08-28T20:11:05.128Z,59.33
2018-08-28T20:13:32.487Z,59.63
2018-08-28T20:15:59.719Z,59.75
2018-08-28T20:18:26.996Z,60.17
2018-08-28T20:20:54.336Z,60.52
2018-08-28T20:23:21.564Z,60.46
2018-08-28T20:25:48.802Z,60.73
2018-08-28T20:28:16.099Z,61.16
2018-08-28T20:30:43.323Z,61.56
2018-08-28T20:33:10.599Z,61.97
2018-08-28T20:35:37.966Z,62.64
2018-08-28T20:38:05.350Z,63.05
2018-08-28T20:40:32.610Z,62.56
2018-08-28T20:42:59.865Z,63.05
2018-08-28T20:45:27.206Z,63.00
2018-08-28T20:47:54.510Z,62.81
2018-08-28T20:50:21.797Z,63.05
2018-08-28T20:52:49.114Z,63.26
2018-08-28T20:55:16.473Z,63.26
2018-08-28T20:57:43.771Z,63.35
2018-08-28T21:00:11.128Z,64.32
2018-08-28T21:02:38.372Z,64.24
2018-08-28T21:05:05.753Z,65.19
2018-08-28T21:07:33.045Z,64.81
2018-08-28T21:10:00.362Z,65.03
2018-08-28T21:12:27.807Z,65.72
2018-08-28T21:14:55.172Z,65.38
2018-08-28T21:17:22.498Z,65.66
2018-08-28T21:19:49.757Z,65.99
2018-08-28T21:22:17.102Z,65.99
2018-08-28T21:24:44.354Z,66.03
2018-08-28T21:27:11.684Z,66.66
2018-08-28T21:29:38.997Z,66.55
2018-08-28T21:32:20.113Z,66.46
2018-08-28T21:34:47.364Z,66.50
2018-08-28T21:37:14.704Z,66.85
2018-08-28T21:39:41.991Z,67.20
2018-08-28T21:42:09.289Z,66.98
2018-08-28T21:44:36.568Z,67.50
2018-08-28T21:47:03.838Z,68.19
2018-08-28T21:49:31.163Z,68.45
2018-08-28T21:51:58.472Z,68.49
2018-08-28T21:54:25.811Z,68.27
2018-08-28T21:56:53.070Z,68.68
2018-08-28T21:59:20.363Z,68.94
2018-08-28T22:01:47.709Z,68.81
2018-08-28T22:04:15.064Z,68.08
2018-08-28T22:06:48.220Z,68.20
2018-08-28T22:09:15.512Z,68.65
2018-08-28T22:11:42.885Z,68.51
2018-08-28T22:14:10.146Z,68.27
2018-08-28T22:16:37.463Z,68.90
2018-08-28T22:19:05.011Z,69.36
2018-08-28T22:21:32.328Z,69.81
2018-08-28T22:24:00.670Z,69.48
2018-08-28T22:26:28.028Z,69.52
2018-08-28T22:28:55.283Z,69.59
2018-08-28T22:31:22.634Z,69.45
2018-08-28T22:33:49.863Z,69.77
2018-08-28T22:36:17.165Z,70.13
2018-08-28T22:38:44.488Z,70.41
2018-08-28T22:41:11.769Z,69.82
2018-08-28T22:43:39.147Z,69.97
2018-08-28T22:46:06.619Z,70.01
2018-08-28T22:48:33.858Z,69.71
2018-08-28T22:51:01.190Z,69.56
2018-08-28T22:53:28.542Z,70.17
2018-08-28T22:55:55.858Z,70.15
2018-08-28T22:58:23.111Z,71.12
2018-08-28T23:00:50.386Z,70.88
2018-08-28T23:03:17.661Z,70.55
2018-08-28T23:05:44.935Z,70.99
2018-08-28T23:08:12.226Z,71.33
2018-08-28T23:10:39.549Z,70.35
2018-08-28T23:13:06.960Z,71.21
2018-08-28T23:15:34.270Z,71.64
2018-08-28T23:18:01.551Z,71.73
2018-08-28T23:20:28.961Z,71.81
2018-08-28T23:22:56.257Z,72.55
2018-08-28T23:25:23.586Z,72.07
2018-08-28T23:27:50.832Z,71.76
2018-08-28T23:30:18.235Z,72.08
2018-08-28T23:32:45.417Z,72.16
2018-08-28T23:35:12.758Z,73.02
2018-08-28T23:37:40.022Z,73.04
2018-08-28T23:40:08.185Z,73.16
2018-08-28T23:42:35.538Z,73.07
2018-08-28T23:45:02.955Z,73.32
2018-08-28T23:47:30.222Z,73.45
2018-08-28T23:49:57.622Z,73.85
2018-08-28T23:52:24.930Z,73.41
2018-08-28T23:54:52.191Z,73.18
2018-08-28T23:57:19.570Z,73.60
2018-08-28T23:59:46.803Z,73.13
